createdAt,value
2018-06-18T00:01:10.003Z,98674.06
2018-06-18T00:03:39.078Z,98681.53
2018-06-18T00:06:08.163Z,98683.67
2018-06-18T00:08:37.274Z,98690.81
2018-06-18T00:11:06.339Z,98684.39
2018-06-18T00:13:35.414Z,98683.09
2018-06-18T00:16:04.524Z,98681.51
2018-06-18T00:18:33.603Z,98680.66
2018-06-18T00:21:02.686Z,98673.88
2018-06-18T00:23:31.804Z,98671.05
2018-06-18T00:26:00.923Z,98675.81
2018-06-18T00:28:30.026Z,98668.94
2018-06-18T00:31:00.532Z,98668.16
2018-06-18T00:33:29.704Z,98666.28
2018-06-18T00:35:58.963Z,98674.64
2018-06-18T00:38:28.107Z,98671.23
2018-06-18T00:40:57.266Z,98675.22
2018-06-18T00:43:26.414Z,98680.22
2018-06-18T00:45:55.934Z,98674.14
2018-06-18T00:48:25.003Z,98673.71
2018-06-18T00:50:55.326Z,98678.08
2018-06-18T00:53:24.678Z,98674.88
2018-06-18T00:56:05.550Z,98676.12
2018-06-18T00:58:34.658Z,98684.22
2018-06-18T01:01:03.727Z,98681.77
2018-06-18T01:03:32.819Z,98683.21
2018-06-18T01:06:02.090Z,98682.34
2018-06-18T01:08:31.176Z,98682.78
2018-06-18T01:11:00.586Z,98680.41
2018-06-18T01:13:29.665Z,98685.78
2018-06-18T01:15:59.011Z,98673.22
2018-06-18T01:18:28.447Z,98665.49
2018-06-18T01:20:57.548Z,98666.60
2018-06-18T01:23:48.080Z,98669.33
2018-06-18T01:26:17.192Z,98672.11
2018-06-18T01:28:53.218Z,98677.76
2018-06-18T01:31:22.391Z,98678.19
2018-06-18T01:33:54.294Z,98676.47
2018-06-18T01:36:23.435Z,98675.19
2018-06-18T01:38:52.603Z,98681.23
2018-06-18T01:41:21.802Z,98678.53
2018-06-18T01:43:50.987Z,98680.60
2018-06-18T01:46:20.151Z,98682.31
2018-06-18T01:48:49.243Z,98680.64
2018-06-18T01:51:18.307Z,98677.29
2018-06-18T01:53:47.383Z,98673.86
2018-06-18T01:56:16.677Z,98681.03
2018-06-18T01:58:45.773Z,98683.59
2018-06-18T02:01:16.823Z,98687.31
2018-06-18T02:03:47.461Z,98676.78
2018-06-18T02:06:19.399Z,98680.38
2018-06-18T02:08:49.908Z,98675.80
2018-06-18T02:11:19.930Z,98674.64
2018-06-18T02:13:49.646Z,98678.50
2018-06-18T02:16:19.483Z,98674.40
2018-06-18T02:18:50.573Z,98666.49
2018-06-18T02:21:20.115Z,98661.27
2018-06-18T02:23:50.904Z,98663.25
2018-06-18T02:26:20.638Z,98662.43
2018-06-18T02:30:57.982Z,98668.70
2018-06-18T02:33:33.578Z,98678.83
2018-06-18T02:36:08.176Z,98680.81
2018-06-18T02:38:43.204Z,98682.45
2018-06-18T02:41:12.847Z,98683.83
2018-06-18T02:43:42.683Z,98685.11
2018-06-18T02:46:11.839Z,98677.55
2018-06-18T02:48:41.317Z,98681.84
2018-06-18T02:51:10.534Z,98684.77
2018-06-18T02:53:39.690Z,98687.65
2018-06-18T02:56:08.889Z,98693.59
2018-06-18T02:58:39.623Z,98680.60
2018-06-18T03:01:08.814Z,98677.88
2018-06-18T03:03:37.998Z,98675.38
2018-06-18T03:06:07.116Z,98673.39
2018-06-18T03:08:36.260Z,98674.72
2018-06-18T03:11:05.458Z,98677.64
2018-06-18T03:13:34.572Z,98683.30
2018-06-18T03:16:04.127Z,98681.89
2018-06-18T03:18:38.539Z,98688.44
2018-06-18T03:21:13.306Z,98686.30
2018-06-18T03:23:47.663Z,98685.86
2018-06-18T03:26:21.901Z,98679.86
2018-06-18T03:28:56.198Z,98673.43
2018-06-18T03:31:25.303Z,98675.42
2018-06-18T03:33:54.386Z,98668.44
2018-06-18T03:36:23.510Z,98677.02
2018-06-18T03:38:53.088Z,98679.74
2018-06-18T03:41:22.127Z,98687.89
2018-06-18T03:43:58.585Z,98702.32
2018-06-18T03:46:27.699Z,98701.03
2018-06-18T03:48:56.778Z,98692.96
2018-06-18T03:51:25.879Z,98689.61
2018-06-18T03:53:55.007Z,98685.59
2018-06-18T03:56:24.077Z,98687.74
2018-06-18T03:58:53.763Z,98686.18
2018-06-18T04:01:44.139Z,98698.11
2018-06-18T04:04:19.309Z,98701.20
2018-06-18T04:06:53.707Z,98698.93
2018-06-18T04:09:28.019Z,98698.93
2018-06-18T04:12:02.380Z,98694.21
2018-06-18T04:14:31.488Z,98690.91
2018-06-18T04:17:00.665Z,98704.58
2018-06-18T04:19:29.851Z,98711.02
2018-06-18T04:21:59.270Z,98713.12
2018-06-18T04:24:28.349Z,98713.06
2018-06-18T04:26:58.150Z,98704.03
2018-06-18T04:29:27.235Z,98702.47
2018-06-18T04:31:56.336Z,98703.99
2018-06-18T04:34:46.374Z,98698.88
2018-06-18T04:37:15.955Z,98705.45
2018-06-18T04:39:45.086Z,98704.56
2018-06-18T04:42:19.580Z,98718.98
2018-06-18T04:44:53.996Z,98715.44
2018-06-18T04:47:28.319Z,98726.36
2018-06-18T04:50:02.591Z,98723.56
2018-06-18T04:52:31.875Z,98727.58
2018-06-18T04:55:01.755Z,98725.78
2018-06-18T04:57:31.033Z,98729.72
2018-06-18T05:00:35.078Z,98727.22
2018-06-18T05:03:04.183Z,98728.58
2018-06-18T05:05:33.262Z,98724.89
2018-06-18T05:08:51.875Z,98738.09
2018-06-18T05:11:20.993Z,98741.85
2018-06-18T05:13:50.070Z,98734.75
2018-06-18T05:16:19.429Z,98731.41
2018-06-18T05:18:48.768Z,98728.20
2018-06-18T05:21:18.143Z,98737.59
2018-06-18T05:23:47.239Z,98731.99
2018-06-18T05:26:16.872Z,98739.86
2018-06-18T05:28:46.104Z,98738.45
2018-06-18T05:31:15.222Z,98733.92
2018-06-18T05:33:44.354Z,98734.13
2018-06-18T05:36:14.272Z,98737.43
2018-06-18T05:38:43.366Z,98734.44
2018-06-18T05:41:12.783Z,98735.80
2018-06-18T05:43:41.924Z,98737.25
2018-06-18T05:46:11.121Z,98743.42
2018-06-18T05:48:40.230Z,98732.25
2018-06-18T05:51:09.556Z,98734.13
2018-06-18T05:53:38.627Z,98739.59
2018-06-18T05:56:07.888Z,98744.13
2018-06-18T05:58:37.878Z,98745.08
2018-06-18T06:01:07.507Z,98748.02
2018-06-18T06:03:36.598Z,98755.31
2018-06-18T06:06:05.793Z,98753.34
2018-06-18T06:08:34.578Z,98754.78
2018-06-18T06:11:03.687Z,98759.23
2018-06-18T06:13:32.789Z,98757.49
2018-06-18T06:16:01.915Z,98763.59
2018-06-18T06:18:30.987Z,98759.97
2018-06-18T06:21:03.331Z,98757.86
2018-06-18T06:23:32.434Z,98759.44
2018-06-18T06:26:01.791Z,98767.78
2018-06-18T06:28:30.927Z,98772.16
2018-06-18T06:31:00.511Z,98773.52
2018-06-18T06:33:29.635Z,98766.02
2018-06-18T06:36:00.631Z,98764.95
2018-06-18T06:38:29.795Z,98752.67
2018-06-18T06:40:58.938Z,98753.49
2018-06-18T06:43:28.044Z,98755.05
2018-06-18T06:45:57.815Z,98758.34
2018-06-18T06:48:26.925Z,98762.59
2018-06-18T06:50:56.091Z,98768.08
2018-06-18T06:53:25.242Z,98760.93
2018-06-18T06:55:54.389Z,98763.12
2018-06-18T06:58:23.538Z,98767.19
2018-06-18T07:00:52.851Z,98772.95
2018-06-18T07:03:22.010Z,98771.27
2018-06-18T07:05:51.307Z,98780.41
2018-06-18T07:08:21.258Z,98778.56
2018-06-18T07:10:50.426Z,98777.05
2018-06-18T07:13:21.249Z,98782.76
2018-06-18T07:15:50.287Z,98782.44
2018-06-18T07:18:19.366Z,98783.67
2018-06-18T07:20:48.512Z,98777.59
2018-06-18T07:23:17.594Z,98782.20
2018-06-18T07:25:46.679Z,98779.31
2018-06-18T07:28:15.799Z,98780.95
2018-06-18T07:30:44.855Z,98774.34
2018-06-18T07:33:13.927Z,98776.72
2018-06-18T07:35:43.015Z,98771.74
2018-06-18T07:38:12.115Z,98777.83
2018-06-18T07:40:41.183Z,98776.34
2018-06-18T07:43:10.526Z,98778.86
2018-06-18T07:45:39.669Z,98775.73
2018-06-18T07:48:09.113Z,98773.13
2018-06-18T07:50:38.202Z,98769.82
2018-06-18T07:53:07.474Z,98776.38
2018-06-18T07:55:36.631Z,98774.23
2018-06-18T07:58:06.363Z,98773.59
2018-06-18T08:00:35.455Z,98774.41
2018-06-18T08:03:04.553Z,98774.34
2018-06-18T08:05:33.685Z,98776.70
2018-06-18T08:08:02.773Z,98774.70
2018-06-18T08:10:31.871Z,98781.76
2018-06-18T08:13:01.065Z,98776.96
2018-06-18T08:15:30.213Z,98784.47
2018-06-18T08:17:59.290Z,98782.41
2018-06-18T08:20:28.399Z,98772.66
2018-06-18T08:22:57.465Z,98779.31
2018-06-18T08:25:26.542Z,98772.73
2018-06-18T08:27:55.665Z,98781.11
2018-06-18T08:30:24.755Z,98782.68
2018-06-18T08:32:53.659Z,98783.88
2018-06-18T08:35:22.907Z,98785.68
2018-06-18T08:37:52.276Z,98787.23
2018-06-18T08:40:22.115Z,98794.71
2018-06-18T08:42:52.624Z,98791.56
2018-06-18T08:45:21.778Z,98795.52
2018-06-18T08:47:50.873Z,98794.47
2018-06-18T08:50:25.126Z,98784.59
2018-06-18T08:52:59.411Z,98790.65
2018-06-18T08:55:33.654Z,98784.98
2018-06-18T08:58:08.330Z,98782.27
2018-06-18T09:00:42.842Z,98777.94
2018-06-18T09:03:11.647Z,98783.13
2018-06-18T09:05:43.078Z,98780.69
2018-06-18T09:08:12.170Z,98774.01
2018-06-18T09:10:41.371Z,98774.92
2018-06-18T09:13:10.623Z,98775.29
2018-06-18T09:15:40.539Z,98781.83
2018-06-18T09:18:10.071Z,98781.43
2018-06-18T09:20:39.255Z,98784.46
2018-06-18T09:23:10.815Z,98780.79
2018-06-18T09:25:46.859Z,98778.83
2018-06-18T09:28:16.827Z,98783.64
2018-06-18T09:30:46.036Z,98784.81
2018-06-18T09:33:15.166Z,98781.45
2018-06-18T09:35:44.548Z,98782.62
2018-06-18T09:38:13.765Z,98782.74
2018-06-18T09:40:42.882Z,98779.36
2018-06-18T09:43:12.021Z,98780.90
2018-06-18T09:45:41.818Z,98783.77
2018-06-18T09:48:10.616Z,98779.77
2018-06-18T09:50:44.411Z,98774.66
2018-06-18T09:53:18.746Z,98781.63
2018-06-18T09:55:52.568Z,98772.23
2018-06-18T09:58:27.494Z,98778.50
2018-06-18T10:01:17.611Z,98780.77
2018-06-18T10:03:46.730Z,98779.58
2018-06-18T10:06:15.823Z,98777.67
2018-06-18T10:08:45.024Z,98776.98
2018-06-18T10:11:14.019Z,98772.33
2018-06-18T10:13:43.102Z,98776.17
2018-06-18T10:16:12.735Z,98772.46
2018-06-18T10:18:41.965Z,98777.05
2018-06-18T10:21:11.903Z,98777.55
2018-06-18T10:23:41.635Z,98769.05
2018-06-18T10:26:10.718Z,98766.59
2018-06-18T10:28:39.846Z,98772.22
2018-06-18T10:31:08.927Z,98759.46
2018-06-18T10:33:43.398Z,98759.69
2018-06-18T10:36:17.675Z,98762.41
2018-06-18T10:38:52.274Z,98763.27
2018-06-18T10:41:26.648Z,98761.04
2018-06-18T10:43:55.771Z,98755.65
2018-06-18T10:46:24.846Z,98755.49
2018-06-18T10:48:53.981Z,98748.36
2018-06-18T10:51:23.094Z,98754.27
2018-06-18T10:53:52.210Z,98745.58
2018-06-18T10:56:21.333Z,98740.11
2018-06-18T10:58:50.473Z,98747.27
2018-06-18T11:01:26.710Z,98749.06
2018-06-18T11:03:55.847Z,98739.70
2018-06-18T11:06:30.032Z,98732.89
2018-06-18T11:08:59.122Z,98735.48
2018-06-18T11:11:28.574Z,98725.91
2018-06-18T11:13:58.639Z,98729.91
2018-06-18T11:16:28.101Z,98733.23
2018-06-18T11:19:02.328Z,98732.88
2018-06-18T11:21:36.975Z,98727.55
2018-06-18T11:24:11.747Z,98733.09
2018-06-18T11:26:47.517Z,98728.91
2018-06-18T11:29:16.703Z,98736.28
2018-06-18T11:31:45.787Z,98737.73
2018-06-18T11:34:14.927Z,98730.68
2018-06-18T11:36:44.027Z,98719.84
2018-06-18T11:39:13.168Z,98717.19
2018-06-18T11:41:42.265Z,98719.48
2018-06-18T11:44:11.336Z,98717.73
2018-06-18T11:46:40.417Z,98718.24
2018-06-18T11:49:10.067Z,98712.70
2018-06-18T11:51:39.451Z,98718.95
2018-06-18T11:54:08.583Z,98718.55
2018-06-18T11:56:37.676Z,98714.31
2018-06-18T11:59:12.484Z,98714.88
2018-06-18T12:01:47.229Z,98714.88
2018-06-18T12:04:21.515Z,98714.00
2018-06-18T12:06:55.865Z,98711.56
2018-06-18T12:09:31.530Z,98710.49
2018-06-18T12:12:00.599Z,98713.81
2018-06-18T12:14:29.715Z,98715.20
2018-06-18T12:16:58.794Z,98708.42
2018-06-18T12:19:27.884Z,98715.73
2018-06-18T12:21:57.008Z,98706.81
2018-06-18T12:24:26.090Z,98702.62
2018-06-18T12:26:55.171Z,98705.16
2018-06-18T12:29:24.281Z,98701.94
2018-06-18T12:31:53.363Z,98701.11
2018-06-18T12:34:22.446Z,98693.79
2018-06-18T12:36:51.550Z,98688.20
2018-06-18T12:39:20.630Z,98683.95
2018-06-18T12:41:58.543Z,98678.98
2018-06-18T12:44:31.703Z,98679.03
2018-06-18T12:47:06.214Z,98682.16
2018-06-18T12:49:52.450Z,98688.58
2018-06-18T12:52:27.291Z,98691.44
2018-06-18T12:55:02.071Z,98690.20
2018-06-18T12:57:31.195Z,98689.95
2018-06-18T13:00:00.494Z,98692.59
2018-06-18T13:02:36.523Z,98687.72
2018-06-18T13:05:06.228Z,98680.37
2018-06-18T13:07:35.329Z,98686.47
2018-06-18T13:10:04.638Z,98685.06
2018-06-18T13:12:34.016Z,98685.89
2018-06-18T13:15:03.148Z,98687.60
2018-06-18T13:17:32.843Z,98694.25
2018-06-18T13:20:02.330Z,98687.64
2018-06-18T13:22:31.479Z,98691.98
2018-06-18T13:25:00.619Z,98690.17
2018-06-18T13:27:35.036Z,98686.47
2018-06-18T13:30:05.559Z,98687.11
2018-06-18T13:32:34.712Z,98695.58
2018-06-18T13:35:03.804Z,98685.66
2018-06-18T13:37:38.222Z,98688.65
2018-06-18T13:40:12.487Z,98685.70
2018-06-18T13:42:46.931Z,98680.09
2018-06-18T13:45:21.208Z,98680.58
2018-06-18T13:47:55.670Z,98682.71
2018-06-18T13:50:24.779Z,98684.79
2018-06-18T13:52:53.939Z,98677.72
2018-06-18T13:55:23.080Z,98674.07
2018-06-18T13:57:52.198Z,98677.41
2018-06-18T14:00:21.530Z,98673.95
2018-06-18T14:02:50.842Z,98677.56
2018-06-18T14:05:19.937Z,98676.75
2018-06-18T14:07:49.175Z,98670.67
2018-06-18T14:10:19.707Z,98675.92
2018-06-18T14:12:48.803Z,98681.84
2018-06-18T14:15:20.218Z,98679.33
2018-06-18T14:17:49.523Z,98670.76
2018-06-18T14:20:23.180Z,98673.85
2018-06-18T14:22:52.906Z,98665.31
2018-06-18T14:25:23.978Z,98675.13
2018-06-18T14:27:53.219Z,98668.23
2018-06-18T14:30:27.693Z,98669.30
2018-06-18T14:33:02.141Z,98663.22
2018-06-18T14:35:36.498Z,98671.17
2018-06-18T14:38:10.883Z,98673.70
2018-06-18T14:40:39.984Z,98675.67
2018-06-18T14:43:09.982Z,98663.02
2018-06-18T14:45:39.642Z,98658.19
2018-06-18T14:48:09.022Z,98672.01
2018-06-18T14:50:38.201Z,98661.27
2018-06-18T14:53:07.283Z,98661.11
2018-06-18T14:55:37.195Z,98662.44
2018-06-18T14:58:07.027Z,98662.22
2018-06-18T15:00:37.299Z,98669.86
2018-06-18T15:03:07.176Z,98666.39
2018-06-18T15:05:41.364Z,98666.31
2018-06-18T15:08:10.562Z,98674.72
2018-06-18T15:10:45.165Z,98677.59
2018-06-18T15:13:15.463Z,98675.67
2018-06-18T15:15:49.807Z,98669.68
2018-06-18T15:18:18.980Z,98670.59
2018-06-18T15:20:48.051Z,98667.14
2018-06-18T15:23:17.127Z,98665.59
2018-06-18T15:25:49.967Z,98672.16
2018-06-18T15:28:19.055Z,98667.63
2018-06-18T15:30:48.184Z,98676.36
2018-06-18T15:33:17.301Z,98668.33
2018-06-18T15:35:46.458Z,98666.78
2018-06-18T15:38:15.620Z,98668.53
2018-06-18T15:40:44.682Z,98670.39
2018-06-18T15:43:14.274Z,98667.46
2018-06-18T15:45:43.381Z,98664.81
2018-06-18T15:48:12.487Z,98663.98
2018-06-18T15:50:41.735Z,98657.22
2018-06-18T15:53:10.855Z,98661.91
2018-06-18T15:55:39.938Z,98665.68
2018-06-18T15:58:08.902Z,98661.49
2018-06-18T16:00:38.112Z,98659.65
2018-06-18T16:03:07.356Z,98658.72
2018-06-18T16:05:36.852Z,98661.98
2018-06-18T16:08:06.390Z,98666.50
2018-06-18T16:10:35.530Z,98656.24
2018-06-18T16:13:04.406Z,98656.20
2018-06-18T16:15:33.490Z,98659.78
2018-06-18T16:18:02.775Z,98665.42
2018-06-18T16:20:31.941Z,98672.59
2018-06-18T16:23:01.749Z,98666.77
2018-06-18T16:25:31.279Z,98665.61
2018-06-18T16:28:00.419Z,98671.17
2018-06-18T16:30:29.763Z,98676.58
2018-06-18T16:32:58.890Z,98676.22
2018-06-18T16:35:28.033Z,98680.06
2018-06-18T16:37:57.152Z,98672.23
2018-06-18T16:40:26.300Z,98675.69
2018-06-18T16:42:56.139Z,98681.52
2018-06-18T16:45:25.303Z,98677.53
2018-06-18T16:47:54.431Z,98673.20
2018-06-18T16:50:23.966Z,98679.39
2018-06-18T16:52:53.162Z,98677.81
2018-06-18T16:55:22.230Z,98681.78
2018-06-18T16:57:51.347Z,98682.75
2018-06-18T17:00:20.449Z,98684.22
2018-06-18T17:02:50.159Z,98686.17
2018-06-18T17:05:42.402Z,98683.83
2018-06-18T17:08:12.283Z,98696.92
2018-06-18T17:10:41.426Z,98689.92
2018-06-18T17:13:10.872Z,98699.84
2018-06-18T17:15:40.037Z,98697.29
2018-06-18T17:18:09.651Z,98695.24
2018-06-18T17:20:38.892Z,98700.92
2018-06-18T17:23:08.493Z,98698.09
2018-06-18T17:25:37.815Z,98696.30
2018-06-18T17:28:06.906Z,98696.36
2018-06-18T17:30:36.059Z,98699.72
2018-06-18T17:33:05.163Z,98700.22
2018-06-18T17:35:34.931Z,98702.81
2018-06-18T17:38:04.448Z,98702.27
2018-06-18T17:40:33.912Z,98711.92
2018-06-18T17:43:03.159Z,98710.06
2018-06-18T17:45:32.335Z,98706.68
2018-06-18T17:48:02.136Z,98708.75
2018-06-18T17:50:32.302Z,98711.56
2018-06-18T17:53:01.915Z,98702.94
2018-06-18T17:55:31.893Z,98708.27
2018-06-18T17:58:01.735Z,98707.91
2018-06-18T18:00:32.391Z,98712.19
2018-06-18T18:03:02.415Z,98708.99
2018-06-18T18:05:32.427Z,98711.33
2018-06-18T18:08:02.279Z,98715.02
2018-06-18T18:10:32.325Z,98716.80
2018-06-18T18:13:01.640Z,98705.28
2018-06-18T18:15:31.211Z,98708.42
2018-06-18T18:18:00.852Z,98709.87
2018-06-18T18:20:29.962Z,98713.00
2018-06-18T18:22:59.715Z,98702.91
2018-06-18T18:25:28.882Z,98704.92
2018-06-18T18:27:58.698Z,98716.27
2018-06-18T18:30:27.790Z,98709.33
2018-06-18T18:32:57.330Z,98717.50
2018-06-18T18:35:26.442Z,98712.43
2018-06-18T18:37:56.418Z,98715.06
2018-06-18T18:40:26.235Z,98716.34
2018-06-18T18:42:55.315Z,98716.57
2018-06-18T18:45:24.471Z,98711.03
2018-06-18T18:47:53.606Z,98713.97
2018-06-18T18:50:23.959Z,98707.13
2018-06-18T18:52:53.066Z,98709.12
2018-06-18T18:55:42.697Z,98720.84
2018-06-18T18:58:28.828Z,98719.11
2018-06-18T19:00:58.670Z,98722.70
2018-06-18T19:03:30.275Z,98724.00
2018-06-18T19:05:59.894Z,98729.77
2018-06-18T19:08:32.201Z,98736.75
2018-06-18T19:11:03.702Z,98735.37
2018-06-18T19:13:36.583Z,98728.48
2018-06-18T19:16:06.769Z,98738.40
2018-06-18T19:18:37.498Z,98743.14
2018-06-18T19:21:11.122Z,98736.83
2018-06-18T19:23:40.262Z,98736.43
2018-06-18T19:26:09.334Z,98748.34
2018-06-18T19:28:38.731Z,98759.66
2018-06-18T19:31:14.507Z,98758.58
2018-06-18T19:34:23.567Z,98760.59
2018-06-18T19:36:55.071Z,98766.84
2018-06-18T19:39:32.241Z,98769.05
2018-06-18T19:42:01.631Z,98773.03
2018-06-18T19:44:30.779Z,98775.64
2018-06-18T19:47:21.171Z,98780.48
2018-06-18T19:49:50.327Z,98780.70
2018-06-18T19:52:19.107Z,98785.38
2018-06-18T19:54:52.391Z,98787.39
2018-06-18T19:57:21.671Z,98791.91
2018-06-18T19:59:50.791Z,98795.88
2018-06-18T20:02:19.986Z,98804.49
2018-06-18T20:04:49.287Z,98816.77
2018-06-18T20:07:21.217Z,98806.95
2018-06-18T20:09:50.287Z,98814.19
2018-06-18T20:12:19.479Z,98822.43
2018-06-18T20:14:48.547Z,98829.27
2018-06-18T20:17:17.720Z,98829.48
2018-06-18T20:19:46.959Z,98829.77
2018-06-18T20:22:17.363Z,98833.34
2018-06-18T20:24:48.447Z,98831.02
2018-06-18T20:27:17.526Z,98828.47
2018-06-18T20:29:46.635Z,98827.48
2018-06-18T20:32:15.874Z,98837.13
2018-06-18T20:34:45.695Z,98843.50
2018-06-18T20:37:15.271Z,98838.34
2018-06-18T20:39:45.806Z,98836.63
2018-06-18T20:42:15.185Z,98843.50
2018-06-18T20:44:43.794Z,98844.52
2018-06-18T20:47:12.862Z,98837.99
2018-06-18T20:49:41.638Z,98841.28
2018-06-18T20:52:11.591Z,98841.00
2018-06-18T20:54:40.874Z,98843.88
2018-06-18T20:57:10.752Z,98840.77
2018-06-18T20:59:39.852Z,98845.41
2018-06-18T21:02:09.581Z,98848.33
2018-06-18T21:04:39.538Z,98846.17
2018-06-18T21:07:09.498Z,98844.73
2018-06-18T21:09:39.324Z,98848.83
2018-06-18T21:12:09.047Z,98857.18
2018-06-18T21:14:38.066Z,98854.70
2018-06-18T21:17:07.401Z,98849.78
2018-06-18T21:19:36.848Z,98857.42
2018-06-18T21:22:06.590Z,98860.34
2018-06-18T21:24:35.453Z,98862.86
2018-06-18T21:27:04.692Z,98861.17
2018-06-18T21:29:33.771Z,98861.73
2018-06-18T21:32:02.874Z,98867.36
2018-06-18T21:34:33.451Z,98863.13
2018-06-18T21:37:02.619Z,98867.19
2018-06-18T21:39:31.342Z,98863.97
2018-06-18T21:42:01.096Z,98857.79
2018-06-18T21:44:47.475Z,98858.98
2018-06-18T21:47:16.532Z,98857.90
2018-06-18T21:49:46.125Z,98853.70
2018-06-18T21:52:15.346Z,98852.47
2018-06-18T21:54:45.162Z,98853.80
2018-06-18T21:57:14.471Z,98853.66
2018-06-18T21:59:43.618Z,98861.43
2018-06-18T22:02:12.855Z,98862.81
2018-06-18T22:04:42.127Z,98857.11
2018-06-18T22:07:11.658Z,98858.80
2018-06-18T22:09:40.939Z,98860.02
2018-06-18T22:12:09.669Z,98863.35
2018-06-18T22:14:38.736Z,98867.66
2018-06-18T22:17:08.103Z,98870.84
2018-06-18T22:19:37.686Z,98866.89
2018-06-18T22:22:06.770Z,98865.11
2018-06-18T22:24:36.405Z,98858.23
2018-06-18T22:27:05.847Z,98856.25
2018-06-18T22:29:34.906Z,98868.50
2018-06-18T22:32:04.010Z,98875.63
2018-06-18T22:34:33.128Z,98869.98
2018-06-18T22:37:02.272Z,98867.24
2018-06-18T22:39:31.399Z,98871.28
2018-06-18T22:42:00.478Z,98874.16
2018-06-18T22:44:29.581Z,98869.50
2018-06-18T22:46:59.457Z,98866.95
2018-06-18T22:49:29.091Z,98870.30
2018-06-18T22:51:58.452Z,98875.44
2018-06-18T22:54:27.650Z,98874.93
2018-06-18T22:56:57.506Z,98872.28
2018-06-18T22:59:26.617Z,98869.61
2018-06-18T23:01:56.423Z,98858.44
2018-06-18T23:04:25.652Z,98858.74
2018-06-18T23:06:54.851Z,98862.30
2018-06-18T23:09:24.374Z,98859.25
2018-06-18T23:11:53.611Z,98859.73
2018-06-18T23:14:24.754Z,98861.70
2018-06-18T23:16:54.416Z,98857.85
2018-06-18T23:19:24.034Z,98857.45
2018-06-18T23:21:53.116Z,98853.02
2018-06-18T23:24:22.227Z,98861.01
2018-06-18T23:26:51.747Z,98862.17
2018-06-18T23:29:21.610Z,98861.95
2018-06-18T23:31:50.686Z,98861.59
2018-06-18T23:34:19.841Z,98865.67
2018-06-18T23:36:49.374Z,98862.99
2018-06-18T23:39:18.445Z,98854.97
2018-06-18T23:41:51.638Z,98857.10
2018-06-18T23:44:20.761Z,98862.55
2018-06-18T23:46:49.826Z,98860.56
2018-06-18T23:49:19.159Z,98861.66
2018-06-18T23:51:48.213Z,98864.19
2018-06-18T23:54:17.285Z,98864.79
2018-06-18T23:56:46.406Z,98866.00
2018-06-18T23:59:15.454Z,98873.66
